Time;durP1;ratioP1;P1;durP2;ratioP2;P2;SDS_P1;SDS_P2;PMS_P1;PMS_P2;Temp;Humidity;BMP_temperature;BMP_pressure;BME280_temperature;BME280_humidity;BME280_pressure;Samples;Min_cycle;Max_cycle;Signal;HPM_P1;HPM_P2
2021/04/25 00:00:29;;;;;;;5.82;2.30;;;;;;;8.15;28.18;102232.97;3579500;40;20562;-74
2021/04/25 00:03:00;;;;;;;5.35;2.17;;;;;;;8.11;28.31;102222.34;3579464;40;20045;-74
2021/04/25 00:05:27;;;;;;;7.43;2.53;;;;;;;8.06;28.46;102225.31;3579304;40;20033;-74
2021/04/25 00:07:54;;;;;;;4.63;2.40;;;;;;;8.03;28.37;102221.88;3580410;40;20043;-75
2021/04/25 00:10:22;;;;;;;4.85;2.08;;;;;;;8.01;28.38;102227.41;3579734;40;20104;-74
2021/04/25 00:12:49;;;;;;;4.43;2.15;;;;;;;7.95;28.64;102225.00;3579644;40;20025;-74
2021/04/25 00:15:21;;;;;;;5.38;2.78;;;;;;;7.92;28.88;102222.44;3579139;40;20029;-74
2021/04/25 00:17:49;;;;;;;4.68;2.17;;;;;;;7.87;28.76;102213.63;3579429;40;20301;-74
2021/04/25 00:20:18;;;;;;;6.30;2.80;;;;;;;7.85;28.94;102224.63;3578983;40;20073;-74
2021/04/25 00:22:46;;;;;;;5.28;2.53;;;;;;;7.79;28.54;102219.50;3579131;40;20414;-74
2021/04/25 00:25:14;;;;;;;6.13;2.50;;;;;;;7.77;29.09;102221.41;3578383;40;20045;-74
2021/04/25 00:27:42;;;;;;;5.25;2.30;;;;;;;7.73;29.18;102217.13;3579112;40;20041;-74
2021/04/25 00:30:13;;;;;;;6.72;2.80;;;;;;;7.73;29.23;102216.22;3578883;40;20037;-74
2021/04/25 00:32:41;;;;;;;6.00;2.60;;;;;;;7.71;29.14;102216.31;3579059;40;20041;-74
2021/04/25 00:35:10;;;;;;;6.03;2.38;;;;;;;7.70;29.28;102213.66;3579163;40;20063;-74
2021/04/25 00:37:39;;;;;;;3.95;2.05;;;;;;;7.66;29.35;102209.31;3579344;40;20041;-74
2021/04/25 00:40:09;;;;;;;5.13;2.25;;;;;;;7.65;29.54;102208.47;3579357;40;20045;-73
2021/04/25 00:42:37;;;;;;;4.55;2.50;;;;;;;7.61;29.53;102206.84;3579075;40;20114;-74
2021/04/25 00:45:07;;;;;;;5.63;2.70;;;;;;;7.60;29.59;102207.81;3579181;40;20348;-74
2021/04/25 00:47:34;;;;;;;5.93;2.50;;;;;;;7.59;29.78;102197.88;3578160;40;20033;-74
2021/04/25 00:50:05;;;;;;;4.07;2.50;;;;;;;7.58;29.95;102206.13;3577977;40;20044;-74
2021/04/25 00:52:43;;;;;;;5.75;2.60;;;;;;;7.55;29.67;102209.91;3578890;40;20037;-74
2021/04/25 00:55:12;;;;;;;5.28;2.65;;;;;;;7.54;29.73;102204.53;3579002;40;20025;-74
2021/04/25 00:57:42;;;;;;;5.18;2.60;;;;;;;7.49;29.81;102194.75;3578127;40;20067;-73
2021/04/25 01:00:11;;;;;;;5.75;2.78;;;;;;;7.49;30.13;102208.34;3578783;40;20321;-74
2021/04/25 01:02:39;;;;;;;5.65;2.50;;;;;;;7.43;29.77;102205.97;3579035;40;20090;-74
2021/04/25 01:05:11;;;;;;;4.75;2.65;;;;;;;7.45;30.24;102212.22;3579042;40;20404;-74
2021/04/25 01:07:38;;;;;;;7.07;2.72;;;;;;;7.37;29.82;102208.13;3578870;40;20473;-74
2021/04/25 01:10:07;;;;;;;6.10;2.70;;;;;;;7.37;30.36;102217.19;3578846;40;20039;-73
2021/04/25 01:12:34;;;;;;;5.07;2.40;;;;;;;7.34;30.29;102211.00;3578741;40;20036;-74
2021/04/25 01:15:02;;;;;;;5.00;2.70;;;;;;;7.32;30.20;102212.94;3578994;40;20114;-74
2021/04/25 01:17:29;;;;;;;5.18;2.35;;;;;;;7.30;30.33;102223.91;3579087;40;20121;-73
2021/04/25 01:19:57;;;;;;;5.30;2.60;;;;;;;7.29;30.32;102210.38;3577977;40;20069;-74
2021/04/25 01:22:26;;;;;;;4.45;2.30;;;;;;;7.28;30.11;102217.66;3578877;40;20111;-74
2021/04/25 01:24:53;;;;;;;5.53;2.67;;;;;;;7.28;30.49;102212.19;3577480;40;20067;-74
2021/04/25 01:27:20;;;;;;;5.75;2.50;;;;;;;7.26;30.33;102216.84;3578749;40;20041;-74
2021/04/25 01:29:48;;;;;;;6.68;2.67;;;;;;;7.24;30.20;102217.91;3577827;40;20126;-74
2021/04/25 01:32:15;;;;;;;5.90;2.70;;;;;;;7.21;30.34;102224.38;3579046;40;20374;-74
2021/04/25 01:34:42;;;;;;;5.72;2.60;;;;;;;7.20;30.59;102230.75;3578811;40;20033;-74
2021/04/25 01:40:04;;;;;;;5.13;2.70;;;;;;;7.16;30.84;102220.97;3580587;40;20262;-72
2021/04/25 01:42:32;;;;;;;5.30;2.58;;;;;;;7.15;30.60;102223.78;3571588;40;20388;-72
2021/04/25 01:44:59;;;;;;;4.78;2.42;;;;;;;7.13;31.02;102225.72;3570997;40;20041;-72
2021/04/25 01:47:26;;;;;;;5.82;2.60;;;;;;;7.13;30.56;102225.72;3571291;40;20301;-72
2021/04/25 01:49:54;;;;;;;4.85;2.50;;;;;;;7.10;30.56;102216.72;3571258;40;20498;-71
2021/04/25 01:52:21;;;;;;;5.28;2.40;;;;;;;7.09;30.79;102214.97;3570868;40;20042;-72
2021/04/25 01:54:48;;;;;;;7.18;2.67;;;;;;;7.08;30.83;102218.63;3571698;40;20078;-72
2021/04/25 01:57:16;;;;;;;4.43;2.17;;;;;;;7.08;31.03;102217.75;3571304;40;20122;-72
2021/04/25 01:59:43;;;;;;;4.68;2.50;;;;;;;7.05;30.82;102217.94;3570616;40;20026;-71
2021/04/25 02:02:11;;;;;;;5.03;2.30;;;;;;;7.04;30.65;102227.94;3549217;40;20054;-71
2021/04/25 02:04:38;;;;;;;5.68;2.78;;;;;;;7.04;31.03;102222.50;3549047;40;20038;-72
2021/04/25 02:07:05;;;;;;;4.80;2.38;;;;;;;7.04;30.94;102227.00;3549734;40;20101;-71
2021/04/25 02:09:33;;;;;;;4.90;2.15;;;;;;;7.01;31.02;102228.03;3529787;40;20036;-72
2021/04/25 02:12:00;;;;;;;6.07;2.40;;;;;;;7.01;31.07;102224.44;3559992;40;20036;-71
2021/04/25 02:14:29;;;;;;;5.13;2.40;;;;;;;7.00;30.87;102226.28;3569955;40;20038;-71
2021/04/25 02:16:57;;;;;;;4.65;2.40;;;;;;;6.99;31.29;102226.38;3572419;40;20033;-72
2021/04/25 02:19:25;;;;;;;5.97;2.60;;;;;;;6.97;31.15;102229.16;3572339;40;20037;-71
2021/04/25 02:21:52;;;;;;;4.95;2.97;;;;;;;6.97;30.69;102228.28;3572248;40;20050;-72
2021/04/25 02:24:19;;;;;;;6.53;2.38;;;;;;;6.94;31.09;102233.84;3572166;40;20045;-73
2021/04/25 02:26:46;;;;;;;7.60;2.75;;;;;;;6.93;31.33;102235.69;3572248;40;20046;-72
2021/04/25 02:29:13;;;;;;;4.65;2.58;;;;;;;6.92;31.23;102230.31;3572348;40;20119;-71
2021/04/25 02:31:41;;;;;;;4.38;2.58;;;;;;;6.91;31.26;102231.31;3572201;40;20037;-72
2021/04/25 02:34:08;;;;;;;5.88;2.60;;;;;;;6.88;31.18;102226.00;3572320;40;20038;-71
2021/04/25 02:36:36;;;;;;;5.55;2.53;;;;;;;6.87;31.11;102229.69;3572575;40;20038;-72
2021/04/25 02:39:04;;;;;;;5.25;2.50;;;;;;;6.85;31.36;102229.75;3540349;40;20035;-72
2021/04/25 02:41:32;;;;;;;6.47;2.55;;;;;;;6.84;31.43;102227.97;3569934;40;20047;-71
2021/04/25 02:43:59;;;;;;;7.38;2.42;;;;;;;6.83;30.98;102220.78;3571840;40;20143;-72
2021/04/25 02:46:27;;;;;;;6.03;2.38;;;;;;;6.82;31.42;102215.44;3572063;40;20034;-71
2021/04/25 02:48:55;;;;;;;5.50;2.38;;;;;;;6.82;31.52;102221.75;3571936;40;20033;-72
2021/04/25 02:51:22;;;;;;;5.07;2.63;;;;;;;6.80;31.45;102231.81;3571894;40;20037;-71
2021/04/25 02:53:49;;;;;;;5.75;2.50;;;;;;;6.78;31.58;102231.00;3572085;40;20044;-71
2021/04/25 02:56:17;;;;;;;5.25;2.60;;;;;;;6.77;31.30;102226.53;3561782;40;20304;-72
2021/04/25 02:58:44;;;;;;;4.28;2.30;;;;;;;6.76;31.60;102224.75;3562433;40;20034;-72
2021/04/25 03:01:12;;;;;;;4.95;2.58;;;;;;;6.75;31.64;102229.31;3561580;40;20042;-71
2021/04/25 03:03:39;;;;;;;5.55;2.53;;;;;;;6.73;31.53;102231.25;3562293;40;20335;-72
2021/04/25 03:06:07;;;;;;;6.28;3.05;;;;;;;6.71;31.52;102233.16;3561632;40;20037;-71
2021/04/25 03:08:34;;;;;;;5.60;2.65;;;;;;;6.69;31.43;102231.47;3561650;40;20042;-71
2021/04/25 03:11:01;;;;;;;5.60;2.60;;;;;;;6.68;31.48;102226.97;3561829;40;20120;-72
2021/04/25 03:13:29;;;;;;;5.75;2.67;;;;;;;6.66;31.35;102235.22;3562095;40;20309;-72
2021/04/25 03:15:57;;;;;;;6.78;2.70;;;;;;;6.63;31.58;102229.94;3552506;40;20442;-72
2021/04/25 03:18:24;;;;;;;5.25;2.50;;;;;;;6.62;31.63;102225.44;3560853;40;20034;-71
2021/04/25 03:20:51;;;;;;;6.93;2.92;;;;;;;6.60;31.80;102229.19;3561518;40;20334;-72
2021/04/25 03:23:20;;;;;;;5.15;2.70;;;;;;;6.57;32.22;102222.06;3561644;40;20030;-71
2021/04/25 03:25:47;;;;;;;5.57;2.55;;;;;;;6.54;31.70;102229.47;3540256;40;20341;-72
2021/04/25 03:28:15;;;;;;;5.65;2.80;;;;;;;6.50;31.87;102227.88;3540724;40;20045;-72
2021/04/25 03:30:42;;;;;;;5.63;2.58;;;;;;;6.47;32.08;102231.63;3520693;40;20087;-71
2021/04/25 03:33:09;;;;;;;5.40;2.40;;;;;;;6.43;32.01;102234.53;3521066;40;20751;-71
2021/04/25 03:35:37;;;;;;;5.50;2.67;;;;;;;6.41;32.19;102234.63;3520694;40;20072;-72
2021/04/25 03:38:04;;;;;;;4.80;2.47;;;;;;;6.38;31.89;102237.47;3520809;40;20091;-71
2021/04/25 03:40:33;;;;;;;7.40;2.95;;;;;;;6.38;32.09;102239.31;3520703;40;20044;-72
2021/04/25 03:43:00;;;;;;;6.32;2.80;;;;;;;6.33;32.02;102235.00;3520435;40;20039;-72
2021/04/25 03:45:28;;;;;;;6.07;2.85;;;;;;;6.30;32.06;102237.84;3520449;40;20036;-71
2021/04/25 03:47:55;;;;;;;5.80;2.60;;;;;;;6.28;32.31;102233.41;3520361;40;20046;-71
2021/04/25 03:50:26;;;;;;;6.05;3.00;;;;;;;6.27;32.38;102229.81;3521256;40;20134;-72
2021/04/25 03:52:54;;;;;;;5.72;2.63;;;;;;;6.25;32.19;102234.44;3512587;40;20036;-72
2021/04/25 03:55:24;;;;;;;6.35;3.05;;;;;;;6.24;32.26;102239.97;3512953;40;20036;-72
2021/04/25 03:57:52;;;;;;;7.38;3.00;;;;;;;6.21;32.49;102240.09;3538791;40;20349;-71
2021/04/25 04:00:20;;;;;;;7.00;2.88;;;;;;;6.19;32.30;102245.59;3540049;40;20079;-71
2021/04/25 04:02:47;;;;;;;6.63;3.42;;;;;;;6.15;32.28;102233.13;3560225;40;20052;-72
2021/04/25 04:05:15;;;;;;;5.13;2.90;;;;;;;6.15;32.38;102241.28;3561537;40;20033;-71
2021/04/25 04:07:42;;;;;;;6.95;3.03;;;;;;;6.12;32.49;102238.69;3561741;40;20046;-71
2021/04/25 04:10:10;;;;;;;5.55;2.95;;;;;;;6.12;32.45;102238.69;3552990;40;20381;-72
2021/04/25 04:12:38;;;;;;;6.20;2.88;;;;;;;6.09;32.78;102241.53;3552791;40;20294;-72
2021/04/25 04:15:07;;;;;;;7.38;3.20;;;;;;;6.09;32.97;102243.41;3561590;40;20344;-72
2021/04/25 04:17:46;;;;;;;7.05;2.95;;;;;;;6.06;32.40;102232.66;3561574;40;20116;-71
2021/04/25 04:20:14;;;;;;;6.03;3.13;;;;;;;6.05;32.84;102231.78;3561356;40;20034;-72
2021/04/25 04:22:41;;;;;;;5.93;3.25;;;;;;;6.04;32.66;102242.69;3562139;40;20050;-71
2021/04/25 04:25:09;;;;;;;5.68;2.72;;;;;;;6.03;32.96;102243.66;3561530;40;20113;-72
2021/04/25 04:27:37;;;;;;;8.02;3.05;;;;;;;5.99;32.46;102245.66;3561483;40;20036;-71
2021/04/25 04:30:07;;;;;;;6.93;3.50;;;;;;;6.01;33.20;102245.56;3564042;40;20033;-72
2021/04/25 04:32:35;;;;;;;5.95;2.78;;;;;;;5.98;32.81;102243.88;3571149;40;20041;-71
2021/04/25 04:35:03;;;;;;;7.20;3.15;;;;;;;5.97;32.99;102242.09;3573007;40;20036;-75
2021/04/25 04:37:30;;;;;;;6.45;3.40;;;;;;;5.96;33.02;102248.47;3573070;40;20045;-71
2021/04/25 04:39:57;;;;;;;7.43;2.97;;;;;;;5.94;33.03;102248.53;3571955;40;20069;-71
2021/04/25 04:42:25;;;;;;;6.80;3.00;;;;;;;5.94;32.80;102240.41;3571911;40;20053;-72
2021/04/25 04:44:52;;;;;;;8.00;3.40;;;;;;;5.95;33.39;102246.72;3571710;40;20037;-72
2021/04/25 04:47:20;;;;;;;8.65;3.67;;;;;;;5.94;33.17;102242.22;3571229;40;20040;-72
2021/04/25 04:49:47;;;;;;;6.93;3.20;;;;;;;5.92;33.44;102241.44;3571734;40;20078;-71
2021/04/25 04:52:14;;;;;;;8.80;3.50;;;;;;;5.91;33.30;102242.38;3571337;40;20076;-71
2021/04/25 04:54:42;;;;;;;7.47;3.72;;;;;;;5.89;33.35;102239.75;3571319;40;20042;-72
2021/04/25 04:57:09;;;;;;;6.28;3.50;;;;;;;5.89;33.38;102247.00;3571618;40;20065;-72
2021/04/25 04:59:36;;;;;;;7.47;3.53;;;;;;;5.87;33.53;102247.06;3571531;40;20034;-71
2021/04/25 05:02:03;;;;;;;7.28;3.47;;;;;;;5.88;33.45;102251.53;3571335;40;20038;-72
2021/04/25 05:04:32;;;;;;;6.55;3.53;;;;;;;5.89;33.84;102250.59;3571474;40;20034;-72
2021/04/25 05:06:59;;;;;;;6.82;3.25;;;;;;;5.88;33.74;102253.38;3571047;40;20056;-71
2021/04/25 05:09:26;;;;;;;6.57;3.22;;;;;;;5.88;33.59;102253.38;3571448;40;20026;-71
2021/04/25 05:11:55;;;;;;;6.65;3.40;;;;;;;5.90;33.95;102249.66;3571303;40;20040;-72
2021/04/25 05:14:23;;;;;;;6.80;3.50;;;;;;;5.89;33.71;102255.16;3571370;40;20034;-71
2021/04/25 05:16:50;;;;;;;8.50;3.45;;;;;;;5.90;33.92;102254.19;3571280;40;20049;-72
2021/04/25 05:19:17;;;;;;;7.18;3.33;;;;;;;5.90;34.05;102260.50;3549353;40;20039;-71
2021/04/25 05:21:45;;;;;;;7.78;3.63;;;;;;;5.91;33.97;102259.56;3549280;40;20061;-72
2021/04/25 05:24:12;;;;;;;7.30;3.38;;;;;;;5.92;33.97;102255.88;3550010;40;20039;-71
2021/04/25 05:26:39;;;;;;;8.02;3.65;;;;;;;5.96;34.27;102262.06;3549371;40;20428;-72
2021/04/25 05:29:07;;;;;;;7.68;4.30;;;;;;;6.00;34.40;102262.81;3549419;40;20448;-72
2021/04/25 05:31:34;;;;;;;7.32;3.55;;;;;;;6.02;34.39;102264.50;3548966;40;20046;-71
2021/04/25 05:34:02;;;;;;;7.22;3.28;;;;;;;6.07;34.21;102270.63;3549825;40;20433;-72
2021/04/25 05:36:30;;;;;;;8.50;4.20;;;;;;;6.11;34.62;102268.63;3549457;40;20393;-71
2021/04/25 05:38:58;;;;;;;6.38;3.85;;;;;;;6.17;34.48;102271.94;3549917;40;20045;-72
2021/04/25 05:41:25;;;;;;;9.43;4.40;;;;;;;6.20;34.43;102273.66;3549643;40;20034;-72
2021/04/25 05:43:52;;;;;;;6.93;3.55;;;;;;;6.23;34.31;102282.56;3549350;40;20031;-72
2021/04/25 05:46:20;;;;;;;7.72;3.80;;;;;;;6.28;34.37;102290.50;3549407;40;20034;-71
2021/04/25 05:48:50;;;;;;;5.97;3.45;;;;;;;6.32;34.75;102284.88;3550480;40;20034;-72
2021/04/25 05:51:18;;;;;;;6.93;3.60;;;;;;;6.35;34.44;102281.09;3569979;40;20034;-72
2021/04/25 05:53:46;;;;;;;7.43;4.07;;;;;;;6.36;34.31;102286.47;3571796;40;20391;-72
2021/04/25 05:56:15;;;;;;;8.25;3.92;;;;;;;6.41;34.34;102293.53;3572239;40;20034;-72
2021/04/25 05:58:42;;;;;;;7.75;4.65;;;;;;;6.42;34.11;102296.16;3572197;40;20030;-71
2021/04/25 06:01:09;;;;;;;7.97;3.80;;;;;;;6.44;34.30;102298.81;3572117;40;20036;-72
2021/04/25 06:03:37;;;;;;;7.93;3.53;;;;;;;6.48;34.58;102295.91;3572497;40;20042;-72
2021/04/25 06:06:05;;;;;;;8.50;3.97;;;;;;;6.51;34.25;102295.75;3572286;40;20401;-72
2021/04/25 06:08:33;;;;;;;7.30;3.70;;;;;;;6.53;34.11;102302.00;3550483;40;20042;-72
2021/04/25 06:11:00;;;;;;;6.97;3.33;;;;;;;6.56;34.29;102301.88;3550704;40;20425;-72
2021/04/25 06:13:29;;;;;;;7.20;3.60;;;;;;;6.58;34.26;102302.66;3550671;40;20042;-71
2021/04/25 06:15:56;;;;;;;7.10;3.45;;;;;;;6.59;34.11;102304.41;3550436;40;20050;-72
2021/04/25 06:18:23;;;;;;;7.35;4.00;;;;;;;6.60;33.50;102308.91;3564369;40;20044;-72
2021/04/25 06:20:50;;;;;;;7.22;3.78;;;;;;;6.60;33.47;102308.03;3572565;40;20038;-71
2021/04/25 06:23:18;;;;;;;8.15;3.60;;;;;;;6.62;33.48;102311.56;3540685;40;20059;-72
2021/04/25 06:25:45;;;;;;;5.53;3.30;;;;;;;6.62;33.34;102303.41;3541176;40;20038;-71
2021/04/25 06:28:12;;;;;;;6.75;3.53;;;;;;;6.59;32.93;102308.97;3540695;40;20035;-72
2021/04/25 06:30:40;;;;;;;7.35;4.07;;;;;;;6.59;33.35;102314.41;3540784;40;20035;-72
2021/04/25 06:33:08;;;;;;;7.82;3.80;;;;;;;6.59;33.34;102314.41;3541086;40;20063;-72
2021/04/25 06:35:35;;;;;;;6.65;3.80;;;;;;;6.56;33.09;102299.16;3541768;40;20030;-72
2021/04/25 06:38:02;;;;;;;7.25;3.45;;;;;;;6.58;32.93;102309.97;3541497;40;20144;-72
2021/04/25 06:40:31;;;;;;;7.07;4.13;;;;;;;6.58;33.03;102309.97;3540669;40;20057;-72
2021/04/25 06:43:00;;;;;;;5.75;3.50;;;;;;;6.57;33.15;102310.91;3541157;40;20039;-72
2021/04/25 06:45:29;;;;;;;6.90;3.40;;;;;;;6.59;33.04;102306.25;3532414;40;20031;-72
2021/04/25 06:47:57;;;;;;;8.52;3.38;;;;;;;6.61;33.35;102307.97;3530604;40;20036;-72
2021/04/25 06:50:24;;;;;;;6.50;3.38;;;;;;;6.62;33.38;102312.44;3531356;40;20048;-72
2021/04/25 06:52:52;;;;;;;5.53;3.30;;;;;;;6.65;33.18;102309.59;3513460;40;20050;-72
2021/04/25 06:55:23;;;;;;;7.25;3.58;;;;;;;6.69;33.43;102319.34;3539929;40;20077;-72
2021/04/25 06:57:51;;;;;;;5.78;3.35;;;;;;;6.72;32.85;102321.94;3550851;40;20031;-71
2021/04/25 07:00:21;;;;;;;4.95;3.20;;;;;;;6.76;32.90;102317.22;3550600;40;20070;-72
2021/04/25 07:02:49;;;;;;;6.07;3.20;;;;;;;6.75;32.51;102323.63;3550818;40;20047;-72
2021/04/25 07:05:17;;;;;;;6.38;3.42;;;;;;;6.78;32.43;102326.19;3541666;40;20038;-71
2021/04/25 07:07:45;;;;;;;4.72;3.05;;;;;;;6.78;32.20;102322.59;3550388;40;20034;-71
2021/04/25 07:10:12;;;;;;;5.57;3.20;;;;;;;6.76;32.13;102314.50;3549012;40;20120;-71
2021/04/25 07:12:40;;;;;;;5.30;3.05;;;;;;;6.79;32.10;102321.66;3553937;40;20053;-71
2021/04/25 07:15:08;;;;;;;5.45;3.40;;;;;;;6.79;32.28;102327.97;3571484;40;20066;-71
2021/04/25 07:17:35;;;;;;;6.20;3.40;;;;;;;6.78;32.26;102323.47;3571593;40;20037;-71
2021/04/25 07:20:04;;;;;;;5.43;3.03;;;;;;;6.81;32.09;102328.78;3571318;40;20056;-71
2021/04/25 07:22:33;;;;;;;5.60;3.13;;;;;;;6.80;32.00;102327.03;3571360;40;20061;-72
2021/04/25 07:25:00;;;;;;;6.38;3.30;;;;;;;6.79;32.22;102333.41;3549779;40;20049;-71
2021/04/25 07:27:27;;;;;;;7.35;2.90;;;;;;;6.83;32.14;102326.84;3549853;40;20173;-72
2021/04/25 07:29:55;;;;;;;4.70;3.00;;;;;;;6.86;32.23;102336.72;3550208;40;20046;-72
2021/04/25 07:32:22;;;;;;;5.18;3.03;;;;;;;6.90;32.43;102335.63;3550238;40;20042;-71
2021/04/25 07:34:51;;;;;;;6.57;3.35;;;;;;;6.93;32.51;102336.34;3551005;40;20121;-72
2021/04/25 07:37:20;;;;;;;5.10;3.00;;;;;;;7.00;32.05;102335.09;3579203;22;20316;-74
2021/04/25 07:39:49;;;;;;;5.68;2.80;;;;;;;7.07;32.09;102342.06;3574020;40;20064;-72
2021/04/25 07:42:18;;;;;;;5.10;2.75;;;;;;;7.13;31.98;102334.56;3567870;40;20041;-71
2021/04/25 07:44:46;;;;;;;5.25;3.20;;;;;;;7.19;32.08;102328.81;3567455;40;20366;-71
2021/04/25 07:47:13;;;;;;;5.40;2.97;;;;;;;7.24;31.78;102334.94;3568733;40;20097;-72
2021/04/25 07:49:40;;;;;;;4.85;3.05;;;;;;;7.33;32.13;102334.44;3567787;40;20089;-71
2021/04/25 07:52:08;;;;;;;5.13;2.70;;;;;;;7.41;32.06;102332.22;3568637;40;20034;-73
2021/04/25 07:54:35;;;;;;;5.03;3.05;;;;;;;7.48;32.00;102329.16;3570016;40;20222;-73
2021/04/25 07:57:04;;;;;;;6.00;3.60;;;;;;;7.59;31.68;102330.44;3567861;40;20308;-74
2021/04/25 07:59:36;;;;;;;5.10;3.15;;;;;;;7.67;31.73;102330.91;3565256;40;20037;-75
2021/04/25 08:02:04;;;;;;;5.47;3.00;;;;;;;7.76;31.80;102325.88;3568291;40;20042;-72
2021/04/25 08:04:31;;;;;;;4.93;2.92;;;;;;;7.88;31.95;102335.28;3567345;40;20064;-74
2021/04/25 08:06:58;;;;;;;6.90;3.03;;;;;;;8.04;31.87;102329.91;3566321;40;20034;-74
2021/04/25 08:09:26;;;;;;;7.40;3.35;;;;;;;8.17;31.63;102322.84;3567930;40;20053;-72
2021/04/25 08:11:54;;;;;;;7.00;3.22;;;;;;;8.28;31.57;102323.16;3568899;40;20073;-75
2021/04/25 08:14:23;;;;;;;7.22;3.38;;;;;;;8.40;31.15;102319.75;3565523;40;20535;-74
2021/04/25 08:16:50;;;;;;;5.47;2.67;;;;;;;8.48;31.25;102322.09;3568589;40;20033;-73
2021/04/25 08:19:18;;;;;;;6.43;3.47;;;;;;;8.60;30.95;102324.19;3569001;40;20047;-72
2021/04/25 08:21:45;;;;;;;5.05;3.08;;;;;;;8.69;31.10;102318.22;3568555;40;20056;-71
2021/04/25 08:24:12;;;;;;;6.28;3.20;;;;;;;8.78;31.07;102317.72;3568975;40;20041;-72
2021/04/25 08:26:40;;;;;;;5.38;3.38;;;;;;;8.87;30.76;102321.78;3568015;40;20116;-71
2021/04/25 08:29:07;;;;;;;5.15;2.65;;;;;;;8.96;30.60;102332.19;3568133;40;20065;-72
2021/04/25 08:31:37;;;;;;;6.72;3.25;;;;;;;9.01;30.04;102327.31;3569225;40;20154;-73
2021/04/25 08:34:05;;;;;;;7.25;3.58;;;;;;;9.06;29.82;102324.31;3558921;40;20034;-73
2021/04/25 08:36:33;;;;;;;5.22;2.83;;;;;;;9.06;29.84;102330.66;3559952;40;20042;-72
2021/04/25 08:39:01;;;;;;;5.82;3.55;;;;;;;9.05;29.73;102328.94;3567954;40;20401;-72
2021/04/25 08:41:29;;;;;;;5.95;3.53;;;;;;;9.07;29.62;102326.97;3568751;40;20037;-73
2021/04/25 08:44:01;;;;;;;5.72;3.05;;;;;;;9.06;29.75;102325.19;3563540;40;20062;-73
2021/04/25 08:46:30;;;;;;;7.28;3.75;;;;;;;9.04;29.60;102323.56;3564886;40;20034;-72
2021/04/25 08:49:02;;;;;;;7.15;4.57;;;;;;;9.13;29.20;102326.66;3569240;40;20405;-73
2021/04/25 08:51:32;;;;;;;7.00;4.07;;;;;;;9.12;29.73;102326.72;3569748;40;20045;-72
2021/04/25 08:54:00;;;;;;;5.47;3.25;;;;;;;9.16;29.69;102314.66;3559287;40;20381;-74
2021/04/25 08:56:27;;;;;;;5.85;3.50;;;;;;;9.21;29.82;102331.66;3558175;40;20065;-73
2021/04/25 08:58:57;;;;;;;6.30;3.78;;;;;;;9.31;29.42;102335.59;3567442;40;20034;-73
2021/04/25 09:01:24;;;;;;;7.43;3.70;;;;;;;9.36;29.51;102330.78;3557872;40;20038;-73
2021/04/25 09:03:51;;;;;;;5.88;3.55;;;;;;;9.40;29.42;102333.22;3558977;40;20405;-73
2021/04/25 09:06:21;;;;;;;5.28;2.88;;;;;;;9.50;29.19;102325.38;3558077;40;20066;-73
2021/04/25 09:08:53;;;;;;;5.57;3.67;;;;;;;9.55;29.00;102325.97;3557477;40;20128;-72
2021/04/25 09:11:32;;;;;;;4.57;3.15;;;;;;;9.60;28.83;102321.16;3559104;40;20328;-73
2021/04/25 09:14:21;;;;;;;3.90;2.85;;;;;;;9.58;28.66;102320.34;3568998;40;20316;-75
2021/04/25 09:16:58;;;;;;;5.57;3.00;;;;;;;9.61;28.22;102320.19;3569462;40;20029;-75
2021/04/25 09:19:29;;;;;;;6.85;3.20;;;;;;;9.66;28.65;102322.63;3559320;40;20026;-75
2021/04/25 09:22:00;;;;;;;4.47;3.10;;;;;;;9.67;28.38;102319.81;3558883;40;20322;-75
2021/04/25 09:24:29;;;;;;;5.70;3.10;;;;;;;9.70;28.58;102318.78;3559369;40;20064;-75
2021/04/25 09:27:00;;;;;;;4.70;2.90;;;;;;;9.71;28.87;102324.13;3559362;40;20653;-74
2021/04/25 09:29:47;;;;;;;5.10;3.45;;;;;;;9.79;28.35;102322.81;3563546;40;20029;-74
2021/04/25 09:32:19;;;;;;;5.85;3.08;;;;;;;9.84;28.53;102317.94;3569120;40;20325;-74
2021/04/25 09:34:46;;;;;;;5.43;2.70;;;;;;;9.85;28.54;102323.31;3568941;40;20053;-74
2021/04/25 09:37:17;;;;;;;6.68;2.90;;;;;;;9.94;28.26;102310.97;3567514;40;20045;-76
2021/04/25 09:40:03;;;;;;;4.55;2.60;;;;;;;9.99;28.02;102304.22;3553145;40;20421;-75
2021/04/25 09:42:33;;;;;;;4.53;2.90;;;;;;;10.05;28.70;102309.31;3555957;40;20100;-76
2021/04/25 09:45:00;;;;;;;6.15;3.10;;;;;;;10.14;28.16;102310.59;3563852;40;20065;-74
2021/04/25 09:47:32;;;;;;;5.10;3.38;;;;;;;10.26;27.76;102312.59;3565110;40;20045;-75
2021/04/25 09:50:00;;;;;;;4.47;2.72;;;;;;;10.28;27.89;102304.31;3569280;40;20049;-74
2021/04/25 09:52:38;;;;;;;5.38;2.72;;;;;;;10.36;27.79;102296.50;3563841;40;20042;-75
2021/04/25 09:55:23;;;;;;;6.22;3.20;;;;;;;10.40;27.78;102303.50;3567552;40;20057;-75
2021/04/25 09:57:54;;;;;;;5.03;3.13;;;;;;;10.42;27.84;102293.38;3545734;40;20058;-75
2021/04/25 10:00:22;;;;;;;4.13;2.67;;;;;;;10.46;27.76;102284.84;3556773;40;20362;-76
2021/04/25 10:03:05;;;;;;;6.05;2.72;;;;;;;10.56;27.51;102290.63;3567560;40;20309;-75
2021/04/25 10:05:33;;;;;;;5.78;2.95;;;;;;;10.58;27.77;102290.53;3567729;40;20408;-75
2021/04/25 10:08:04;;;;;;;6.43;4.00;;;;;;;10.67;27.57;102290.84;3568924;40;20057;-74
2021/04/25 10:10:36;;;;;;;7.07;3.95;;;;;;;10.72;27.84;102301.47;3563891;40;20058;-76
2021/04/25 10:13:08;;;;;;;5.10;3.03;;;;;;;10.81;27.63;102287.19;3567842;40;20127;-75
2021/04/25 10:15:36;;;;;;;4.10;2.50;;;;;;;10.87;27.55;102284.09;3567991;40;20038;-74
2021/04/25 10:18:04;;;;;;;5.97;3.17;;;;;;;10.96;27.06;102283.50;3556488;40;20359;-75
2021/04/25 10:20:34;;;;;;;5.50;2.60;;;;;;;11.00;27.17;102267.75;3567705;40;20041;-75
2021/04/25 10:23:03;;;;;;;3.83;2.70;;;;;;;11.06;27.04;102281.03;3568490;40;20421;-75
2021/04/25 10:25:33;;;;;;;4.50;2.70;;;;;;;11.09;27.04;102278.97;3566153;40;20290;-75
2021/04/25 10:28:08;;;;;;;3.63;2.40;;;;;;;11.13;27.04;102276.91;3568586;40;20061;-75
2021/04/25 10:30:39;;;;;;;3.38;2.20;;;;;;;11.19;27.29;102277.41;3566842;40;20301;-75
2021/04/25 10:33:08;;;;;;;3.88;2.25;;;;;;;11.28;27.29;102278.63;3569167;40;20397;-75
2021/04/25 10:35:35;;;;;;;4.18;2.90;;;;;;;11.38;26.87;102281.63;3570106;40;20050;-75
2021/04/25 10:38:05;;;;;;;3.47;2.00;;;;;;;11.45;26.88;102282.97;3548734;40;20140;-75
2021/04/25 10:40:35;;;;;;;3.53;2.40;;;;;;;11.51;26.53;102275.22;3568607;40;20045;-75
2021/04/25 10:43:08;;;;;;;4.88;2.20;;;;;;;11.57;26.22;102263.84;3568274;40;20049;-75
2021/04/25 10:45:54;;;;;;;3.27;2.17;;;;;;;11.59;26.41;102264.63;3569779;40;20045;-75
2021/04/25 10:48:29;;;;;;;3.60;2.45;;;;;;;11.70;26.53;102252.00;3570614;40;20417;-76
2021/04/25 10:51:18;;;;;;;4.05;2.65;;;;;;;11.75;26.63;102248.00;3563385;40;20077;-75
2021/04/25 10:53:47;;;;;;;5.25;2.90;;;;;;;11.82;26.21;102248.44;3568640;40;20049;-75
2021/04/25 10:56:26;;;;;;;5.53;2.90;;;;;;;11.87;26.20;102238.00;3566645;40;20049;-75
2021/04/25 10:59:21;;;;;;;4.43;2.55;;;;;;;11.88;25.76;102243.41;3569620;40;20030;-75
2021/04/25 11:01:49;;;;;;;4.47;2.40;;;;;;;11.91;26.29;102242.34;3520458;40;20054;-74
2021/04/25 11:04:54;;;;;;;3.92;2.33;;;;;;;11.95;25.79;102232.91;3530023;40;20062;-75
2021/04/25 11:07:38;;;;;;;3.92;2.65;;;;;;;11.99;25.91;102231.72;3530739;40;20153;-75
2021/04/25 11:10:09;;;;;;;3.85;2.88;;;;;;;11.99;25.91;102232.59;3528614;40;20043;-75
2021/04/25 11:12:43;;;;;;;4.88;2.80;;;;;;;12.04;25.66;102240.47;3530659;40;20132;-75
2021/04/25 11:15:27;;;;;;;5.80;2.70;;;;;;;12.04;25.74;102230.38;3532224;40;20477;-75
2021/04/25 11:17:55;;;;;;;4.10;3.00;;;;;;;12.03;25.42;102230.50;3533483;40;20051;-75
2021/04/25 11:20:33;;;;;;;4.50;3.13;;;;;;;12.06;25.20;102224.81;3524475;40;20095;-75
2021/04/25 11:23:29;;;;;;;3.70;2.67;;;;;;;12.03;25.70;102216.78;3508620;40;20052;-75
2021/04/25 11:25:59;;;;;;;5.18;2.80;;;;;;;12.05;25.66;102217.56;3479112;41;20058;-75
2021/04/25 11:28:55;;;;;;;4.88;3.08;;;;;;;12.10;25.04;102214.50;3461988;41;20060;-75
2021/04/25 11:31:49;;;;;;;5.60;2.90;;;;;;;12.14;25.26;102225.13;3475525;41;20046;-74
2021/04/25 11:34:49;;;;;;;4.43;2.67;;;;;;;12.16;25.18;102219.53;3483434;41;20575;-74
2021/04/25 11:37:22;;;;;;;4.13;2.70;;;;;;;12.19;25.23;102209.22;3483807;41;20052;-74
2021/04/25 11:39:52;;;;;;;4.40;2.58;;;;;;;12.24;25.59;102203.41;3515656;40;20059;-75
2021/04/25 11:42:30;;;;;;;3.80;2.47;;;;;;;12.31;25.39;102215.69;3512308;40;20066;-75
2021/04/25 11:45:00;;;;;;;4.70;2.55;;;;;;;12.34;25.65;102207.25;3520652;40;20031;-75